Irene, South Africa

1:04 PM SAST on October 23, 2014 (GMT +0200)
Rooihuiskraal X6 | Change Station
CLOSE
Current Station
Personal Weather Station
Location: Centurion, GAUTENG
Elevation: 4898 ft
Nearby Weather Stations

Elev 4898 ft 25.90 °S, 28.14 °E | Updated 58 seconds ago

Clear
Clear
74.1 °F
Feels Like 77 °F
N
0.0
Wind Variable Wind from North
Gusts 0.0 mph

Today
High -- | Low -- °F
--% Chance of Precip.
Yesterday
High -- | Low -- °F
Precip. -- in
5:25 AM 6:17 PM
Waning Crescent, 0% visible
Pressure 30.18 in
Visibility -9999.0 miles
Clouds
Heat Index 77 °F
Dew Point 51 °F
Humidity 45%
Rainfall 0.00 in
Snow Depth Not available.
UV Not available.
Pollen Not available.
Air Quality Not available.
Flu Activity Not available.
METAR FAIR 230848Z 36008KT CAVOK 21/10 Q1022

More Conditions Fewer Conditions

Pressure 30.18 in
Visibility -9999.0 miles
Clouds
Heat Index 77 °F
Dew Point 51 °F
Humidity 45%
Rainfall 0.00 in
Snow Depth Not available.
UV Not available.
Pollen Not available.
Air Quality Not available.
Flu Activity Not available.
METAR FAIR 230848Z 36008KT CAVOK 21/10 Q1022

More Conditions Fewer Conditions

10-Day Weather Forecast

Almanac

Astronomy

Oct. 23, 2014 Rise Set
Actual Time 5:25 AM SAST 6:17 PM SAST
Civil Twilight 5:01 AM SAST 6:41 PM SAST
Nautical Twilight 4:33 AM SAST 7:09 PM SAST
Astronomical Twilight 4:05 AM SAST 7:38 PM SAST
Moon 5:02 AM SAST 6:00 PM SAST
Length of Visible Light 13h 40m
Length of Day
12h 52m
Tomorrow will be 1m 26s longer.
Waning Crescent, 0% of the Moon is Illuminated
Today
Waning Crescent
Oct 23
New
Oct 30
First Quarter
Nov 6
Full
Nov 14
Last Quarter

Yesterday's Extremes

Country Highs Country Lows

Community

WunderPhotos

Upload Photos

1,764,204 photos uploaded!

Nearby

Snow Depth

Not available.

Earthquake Activity

City Distance Mag. Time & Date
No recent earthquake activity has been reported nearby.
Minimum magnitude displayed is 2.5.

Coastal Water Temperatures

Place Temperature
No Stations Reporting

Nearby Weather Stations